Time;durP1;ratioP1;P1;durP2;ratioP2;P2;SDS_P1;SDS_P2;PMS_P1;PMS_P2;Temp;Humidity;BMP_temperature;BMP_pressure;BME280_temperature;BME280_humidity;BME280_pressure;Samples;Min_cycle;Max_cycle;Signal;HPM_P1;HPM_P2
2022/01/12 00:01:59;;;;;;;11.77;7.70;;;0.60;99.90;;;;;;5020917;28;20214;-80
2022/01/12 00:04:24;;;;;;;11.97;7.60;;;0.60;99.90;;;;;;5038499;28;20673;-80
2022/01/12 00:06:50;;;;;;;14.00;8.03;;;0.60;99.90;;;;;;5019995;28;20207;-80
2022/01/12 00:09:15;;;;;;;12.50;7.23;;;0.70;99.90;;;;;;5037838;28;20195;-80
2022/01/12 00:11:41;;;;;;;12.63;7.83;;;0.70;99.90;;;;;;5039425;28;20210;-80
2022/01/12 00:14:06;;;;;;;13.03;7.47;;;0.70;99.90;;;;;;5041077;28;20681;-80
2022/01/12 00:16:32;;;;;;;13.67;8.13;;;0.70;99.90;;;;;;5041599;28;20191;-80
2022/01/12 00:18:58;;;;;;;18.60;8.97;;;0.70;99.90;;;;;;5023608;28;20184;-80
2022/01/12 00:21:24;;;;;;;15.67;8.43;;;0.80;99.90;;;;;;5042053;28;20178;-80
2022/01/12 00:23:49;;;;;;;11.33;7.90;;;0.80;99.90;;;;;;5023294;28;20214;-80
2022/01/12 00:26:39;;;;;;;17.17;9.30;;;0.80;99.90;;;;;;5044887;28;20250;-80
2022/01/12 00:34:33;;;;;;;12.47;8.60;;;0.90;99.90;;;;;;5043820;28;20238;-80
2022/01/12 00:36:58;;;;;;;12.83;8.27;;;0.90;99.90;;;;;;5025156;28;20196;-80
2022/01/12 00:39:24;;;;;;;14.93;8.37;;;0.90;99.90;;;;;;5028675;28;20176;-82
2022/01/12 00:41:50;;;;;;;13.40;8.40;;;0.90;99.90;;;;;;5025212;28;20202;-80
2022/01/12 00:44:23;;;;;;;14.80;9.03;;;1.00;99.90;;;;;;5042238;28;20283;-80
2022/01/12 00:46:53;;;;;;;18.17;8.73;;;1.00;99.90;;;;;;5023347;28;20208;-79
2022/01/12 00:49:19;;;;;;;14.97;8.77;;;1.00;99.90;;;;;;5023899;28;20188;-79
2022/01/12 00:51:47;;;;;;;15.03;8.33;;;1.00;99.90;;;;;;5023230;28;20195;-79
2022/01/12 00:54:13;;;;;;;18.03;8.77;;;1.00;99.90;;;;;;5023049;28;20192;-81
2022/01/12 00:56:39;;;;;;;17.23;8.23;;;1.00;99.90;;;;;;5022775;28;20282;-79
2022/01/12 00:59:05;;;;;;;11.63;7.40;;;1.00;99.90;;;;;;5032561;28;20178;-81
2022/01/12 01:01:33;;;;;;;15.27;8.10;;;1.00;99.90;;;;;;5058583;28;20178;-80
2022/01/12 01:03:59;;;;;;;14.53;8.53;;;1.00;99.90;;;;;;5057407;28;20206;-80
2022/01/12 01:06:24;;;;;;;13.10;7.67;;;0.90;99.90;;;;;;5043087;28;20604;-79
2022/01/12 01:08:51;;;;;;;14.67;7.87;;;0.90;99.90;;;;;;5041481;28;20722;-80
2022/01/12 01:11:21;;;;;;;13.30;8.23;;;0.90;99.90;;;;;;5040070;28;20550;-81
2022/01/12 01:16:42;;;;;;;11.63;7.60;;;1.00;99.90;;;;;;5040842;28;20179;-82
2022/01/12 01:27:22;;;;;;;15.20;7.63;;;1.00;99.90;;;;;;5039601;28;20597;-80
2022/01/12 01:29:48;;;;;;;12.57;8.23;;;1.00;99.90;;;;;;5039436;28;20191;-80
2022/01/12 01:32:14;;;;;;;13.83;8.60;;;1.10;99.90;;;;;;5022284;28;20685;-80
2022/01/12 01:34:46;;;;;;;14.37;8.07;;;1.10;99.90;;;;;;5023256;28;20203;-80
2022/01/12 01:37:12;;;;;;;13.23;8.63;;;1.10;99.90;;;;;;5021083;28;20214;-80
2022/01/12 01:39:38;;;;;;;14.87;8.97;;;1.10;99.90;;;;;;5020749;28;20192;-80
2022/01/12 01:42:13;;;;;;;14.17;7.67;;;1.10;99.90;;;;;;5020894;28;20211;-80
2022/01/12 01:55:22;;;;;;;15.00;9.17;;;1.20;99.90;;;;;;5039258;28;20190;-80
2022/01/12 01:57:48;;;;;;;13.77;8.30;;;1.10;99.90;;;;;;5038458;28;20244;-80
2022/01/12 02:00:18;;;;;;;16.40;9.13;;;1.20;99.90;;;;;;5038982;28;20607;-80
2022/01/12 02:02:45;;;;;;;14.40;8.03;;;1.20;99.90;;;;;;5039656;28;20211;-80
2022/01/12 02:05:11;;;;;;;13.60;8.73;;;1.20;99.90;;;;;;5024966;28;20184;-80
2022/01/12 02:07:37;;;;;;;16.87;8.97;;;1.20;99.90;;;;;;5053015;28;20203;-80
2022/01/12 02:10:03;;;;;;;13.67;8.37;;;1.20;99.90;;;;;;5026607;28;20180;-80
2022/01/12 02:12:29;;;;;;;15.00;8.90;;;1.30;99.90;;;;;;5038047;28;20200;-80
2022/01/12 02:14:56;;;;;;;16.37;8.70;;;1.30;99.90;;;;;;5020298;28;20219;-80
2022/01/12 02:17:28;;;;;;;14.20;8.37;;;1.30;99.90;;;;;;5020700;28;20196;-80
2022/01/12 02:36:12;;;;;;;12.90;8.20;;;1.20;99.90;;;;;;5037708;28;20687;-80
2022/01/12 02:41:23;;;;;;;13.97;9.00;;;1.20;99.90;;;;;;5037806;28;20186;-80
2022/01/12 02:50:39;;;;;;;12.77;8.93;;;1.20;99.90;;;;;;5037225;28;20219;-80
2022/01/12 02:54:42;;;;;;;12.57;8.17;;;1.20;99.90;;;;;;5038557;28;20165;-81
2022/01/12 02:57:08;;;;;;;14.03;8.13;;;1.20;99.90;;;;;;5037389;28;20195;-80
2022/01/12 02:59:33;;;;;;;14.57;8.87;;;1.20;99.90;;;;;;5020541;28;20220;-81
2022/01/12 03:04:51;;;;;;;10.37;8.13;;;1.20;99.90;;;;;;5037949;28;20208;-80
2022/01/12 03:07:20;;;;;;;12.73;7.90;;;1.20;99.90;;;;;;5038140;28;20213;-80
2022/01/12 03:09:45;;;;;;;11.10;8.20;;;1.20;99.90;;;;;;5037962;28;20258;-80
2022/01/12 03:12:11;;;;;;;13.90;8.33;;;1.10;99.90;;;;;;5019537;28;20731;-81
2022/01/12 03:14:36;;;;;;;11.73;7.80;;;1.20;99.90;;;;;;5019784;28;20218;-80
2022/01/12 03:17:02;;;;;;;10.83;7.77;;;1.20;99.90;;;;;;5019356;28;20609;-80
2022/01/12 03:19:28;;;;;;;11.03;7.30;;;1.20;99.90;;;;;;5019450;28;20188;-80
2022/01/12 03:21:53;;;;;;;16.03;9.20;;;1.20;99.90;;;;;;5019455;28;20230;-80
2022/01/12 03:24:19;;;;;;;14.53;7.67;;;1.20;99.90;;;;;;5018681;28;20215;-79
2022/01/12 03:26:44;;;;;;;13.57;9.00;;;1.20;99.90;;;;;;5019268;28;20195;-80
2022/01/12 03:29:10;;;;;;;13.07;7.90;;;1.20;99.90;;;;;;5018877;28;20176;-79
2022/01/12 03:31:36;;;;;;;14.03;8.43;;;1.20;99.90;;;;;;5019243;28;20282;-80
2022/01/12 03:34:22;;;;;;;13.90;8.23;;;1.20;99.90;;;;;;5019508;28;20700;-80
2022/01/12 03:39:34;;;;;;;12.40;8.80;;;1.30;99.90;;;;;;5037254;28;20179;-81
2022/01/12 03:41:59;;;;;;;15.07;8.77;;;1.30;99.90;;;;;;5036607;28;20191;-80
2022/01/12 03:44:25;;;;;;;13.23;8.53;;;1.30;99.90;;;;;;5036251;28;20204;-80
2022/01/12 03:46:52;;;;;;;12.90;8.77;;;1.30;99.90;;;;;;5020258;28;20179;-80
2022/01/12 03:49:19;;;;;;;11.33;8.30;;;1.40;99.90;;;;;;5041090;28;20179;-80
2022/01/12 03:51:45;;;;;;;12.53;9.13;;;1.40;99.90;;;;;;5022381;28;20262;-80
2022/01/12 03:54:11;;;;;;;12.93;8.83;;;1.40;99.90;;;;;;5040851;28;20253;-81
2022/01/12 03:56:37;;;;;;;18.10;9.03;;;1.50;99.90;;;;;;5023193;28;20194;-79
2022/01/12 03:59:04;;;;;;;15.40;9.07;;;1.40;99.90;;;;;;5022837;28;20188;-80
2022/01/12 04:01:29;;;;;;;14.20;9.03;;;1.50;99.90;;;;;;5022690;28;20252;-79
2022/01/12 04:04:04;;;;;;;15.43;8.90;;;1.50;99.90;;;;;;5040349;28;20286;-79
2022/01/12 04:09:14;;;;;;;11.70;8.17;;;1.50;99.90;;;;;;5040182;28;20249;-79
2022/01/12 04:11:40;;;;;;;15.30;8.57;;;1.50;99.90;;;;;;5039657;28;20263;-79
2022/01/12 04:14:07;;;;;;;13.27;8.07;;;1.50;99.90;;;;;;5022178;28;20700;-78
2022/01/12 04:16:33;;;;;;;13.00;8.13;;;1.50;99.90;;;;;;5022364;28;20195;-79
2022/01/12 04:18:59;;;;;;;12.37;8.47;;;1.60;99.90;;;;;;5021878;28;20655;-80
2022/01/12 04:21:29;;;;;;;11.13;8.20;;;1.50;99.90;;;;;;5040611;28;20188;-80
2022/01/12 04:23:59;;;;;;;15.63;8.73;;;1.50;99.90;;;;;;5040530;28;20630;-80
2022/01/12 04:26:26;;;;;;;13.30;8.30;;;1.50;99.90;;;;;;5023150;28;20204;-79
2022/01/12 04:28:52;;;;;;;17.03;9.90;;;1.50;99.90;;;;;;5022659;28;20566;-80
2022/01/12 04:31:18;;;;;;;12.00;8.23;;;1.60;99.90;;;;;;5022940;28;20195;-80
2022/01/12 04:33:46;;;;;;;14.40;8.60;;;1.60;99.90;;;;;;5022426;28;20250;-80
2022/01/12 04:36:12;;;;;;;15.97;8.83;;;1.60;99.90;;;;;;5040749;28;20309;-81
2022/01/12 04:38:40;;;;;;;15.97;8.20;;;1.60;99.90;;;;;;5040827;28;20210;-80
2022/01/12 04:41:08;;;;;;;14.33;8.93;;;1.60;99.90;;;;;;5041858;28;20187;-81
2022/01/12 04:43:36;;;;;;;10.60;8.40;;;1.60;99.90;;;;;;5040017;28;20760;-80
2022/01/12 04:48:37;;;;;;;18.03;9.83;;;1.60;99.90;;;;;;5041352;28;20180;-80
2022/01/12 04:51:04;;;;;;;16.63;9.40;;;1.70;99.90;;;;;;5041201;28;20159;-81
2022/01/12 04:53:31;;;;;;;17.00;8.90;;;1.70;99.90;;;;;;5023338;28;20243;-80
2022/01/12 04:55:57;;;;;;;12.57;8.43;;;1.70;99.90;;;;;;5024966;28;20776;-80
2022/01/12 04:58:23;;;;;;;13.03;8.87;;;1.70;99.90;;;;;;5039827;28;20177;-80
2022/01/12 05:00:52;;;;;;;13.30;8.13;;;1.70;99.90;;;;;;5023757;28;20192;-80
2022/01/12 05:13:59;;;;;;;11.90;8.07;;;1.70;99.90;;;;;;5042147;28;20386;-80
2022/01/12 05:16:25;;;;;;;14.30;8.77;;;1.70;99.90;;;;;;5026642;28;20190;-80
2022/01/12 05:18:52;;;;;;;14.40;9.40;;;1.80;99.90;;;;;;5034194;28;20188;-79
2022/01/12 05:21:21;;;;;;;14.57;8.67;;;1.80;99.90;;;;;;5035819;28;20199;-80
2022/01/12 05:23:46;;;;;;;13.57;9.30;;;1.80;99.90;;;;;;5049883;28;20212;-78
2022/01/12 05:26:12;;;;;;;16.07;9.13;;;1.80;99.90;;;;;;5052377;28;20211;-79
2022/01/12 05:28:39;;;;;;;13.87;8.50;;;1.80;99.90;;;;;;5043512;28;20227;-80
2022/01/12 05:31:06;;;;;;;15.97;9.73;;;1.80;99.90;;;;;;5040558;28;20168;-80
2022/01/12 05:33:32;;;;;;;14.23;9.00;;;1.80;99.90;;;;;;5041881;28;20310;-80
2022/01/12 05:35:59;;;;;;;13.63;9.23;;;1.80;99.90;;;;;;5049809;28;20196;-80
2022/01/12 05:38:26;;;;;;;13.87;9.27;;;1.80;99.90;;;;;;5044811;28;20211;-80
2022/01/12 05:41:00;;;;;;;13.00;9.07;;;1.80;99.90;;;;;;5030116;28;20190;-80
2022/01/12 05:43:29;;;;;;;12.93;8.90;;;1.80;99.90;;;;;;5039880;28;20213;-79
2022/01/12 05:45:58;;;;;;;14.67;8.83;;;1.80;99.90;;;;;;5037630;28;20642;-78
2022/01/12 05:51:08;;;;;;;13.67;9.40;;;1.80;99.90;;;;;;5038499;28;20310;-79
2022/01/12 05:53:33;;;;;;;15.90;9.10;;;1.80;99.90;;;;;;5037560;28;20239;-79
2022/01/12 05:55:59;;;;;;;15.03;8.97;;;1.90;99.90;;;;;;5038599;28;20195;-79
2022/01/12 05:58:24;;;;;;;13.23;8.83;;;1.90;99.90;;;;;;5038254;28;20184;-78
2022/01/12 06:00:50;;;;;;;18.47;9.70;;;1.80;99.90;;;;;;5020187;28;20591;-78
2022/01/12 06:03:15;;;;;;;12.67;8.57;;;1.80;99.90;;;;;;5037176;28;20693;-78
2022/01/12 06:05:41;;;;;;;11.47;8.10;;;1.90;99.90;;;;;;5036462;28;20184;-77
2022/01/12 06:08:06;;;;;;;15.17;8.33;;;1.90;99.90;;;;;;5019584;28;20203;-79
2022/01/12 06:10:34;;;;;;;12.57;8.67;;;1.90;99.90;;;;;;5020972;28;20184;-78
2022/01/12 06:13:00;;;;;;;16.13;8.73;;;1.90;99.90;;;;;;5033823;28;20207;-78
2022/01/12 06:15:26;;;;;;;13.03;8.80;;;1.90;99.90;;;;;;5033185;28;20184;-78
2022/01/12 06:17:51;;;;;;;13.97;8.93;;;1.80;99.90;;;;;;5047430;28;20180;-79
2022/01/12 06:20:18;;;;;;;13.77;8.20;;;1.90;99.90;;;;;;5038771;28;20183;-79
2022/01/12 06:22:44;;;;;;;14.30;8.50;;;1.90;99.90;;;;;;5045415;28;20235;-79
2022/01/12 06:25:14;;;;;;;13.00;8.77;;;1.90;99.90;;;;;;5043354;28;20212;-79
2022/01/12 06:27:49;;;;;;;15.67;8.20;;;1.90;99.90;;;;;;5020857;28;20260;-78
2022/01/12 06:33:00;;;;;;;15.57;9.20;;;1.90;99.90;;;;;;5006443;28;20693;-79
2022/01/12 06:35:26;;;;;;;12.27;8.40;;;1.90;99.90;;;;;;5019696;28;20187;-79
2022/01/12 06:37:52;;;;;;;15.70;8.83;;;1.90;99.90;;;;;;5019075;28;20188;-79
2022/01/12 06:40:19;;;;;;;14.93;9.17;;;2.00;99.90;;;;;;5037255;28;20182;-79
2022/01/12 06:42:45;;;;;;;14.30;8.90;;;2.00;99.90;;;;;;5036706;28;20195;-79
2022/01/12 06:45:11;;;;;;;14.90;8.73;;;1.90;99.90;;;;;;5037168;28;20262;-79
2022/01/12 06:47:37;;;;;;;11.23;7.77;;;2.00;99.90;;;;;;5019180;28;20181;-78
2022/01/12 06:50:05;;;;;;;12.20;8.90;;;2.00;99.90;;;;;;5020022;28;20181;-80
2022/01/12 06:52:30;;;;;;;11.33;7.93;;;2.00;99.90;;;;;;5037356;28;20258;-79
2022/01/12 06:54:56;;;;;;;13.73;8.50;;;2.00;99.90;;;;;;5019827;28;20597;-80
2022/01/12 06:57:22;;;;;;;16.03;8.47;;;2.00;99.90;;;;;;5036110;28;20260;-79
2022/01/12 06:59:47;;;;;;;18.40;9.07;;;2.00;99.90;;;;;;5036650;28;20681;-79
2022/01/12 07:02:13;;;;;;;14.50;9.63;;;2.00;99.90;;;;;;5036883;28;20207;-79
2022/01/12 07:04:39;;;;;;;11.83;8.90;;;2.00;99.90;;;;;;5037020;28;20219;-79
2022/01/12 07:07:04;;;;;;;14.20;8.40;;;2.00;99.90;;;;;;5018534;28;20550;-79
2022/01/12 07:09:30;;;;;;;12.20;8.73;;;2.00;99.90;;;;;;5036283;28;20713;-79
2022/01/12 07:11:55;;;;;;;18.77;8.93;;;2.10;99.90;;;;;;5018161;28;20250;-79
2022/01/12 07:14:21;;;;;;;11.13;8.53;;;2.00;99.90;;;;;;5035913;28;20223;-79
2022/01/12 07:16:46;;;;;;;14.97;8.97;;;2.00;99.90;;;;;;5018592;28;20195;-79
2022/01/12 07:19:12;;;;;;;13.13;8.57;;;2.00;99.90;;;;;;5036605;28;20188;-79
2022/01/12 07:21:38;;;;;;;14.30;8.57;;;2.10;99.90;;;;;;5017140;28;20188;-78
2022/01/12 07:24:05;;;;;;;17.37;9.07;;;2.10;99.90;;;;;;5018150;28;20212;-79
2022/01/12 07:26:30;;;;;;;14.30;9.40;;;2.10;99.90;;;;;;5036186;28;20176;-77
2022/01/12 07:28:56;;;;;;;14.90;8.77;;;2.10;99.90;;;;;;5018662;28;20184;-79
2022/01/12 07:31:23;;;;;;;18.93;10.37;;;2.10;99.90;;;;;;5018822;28;20221;-79
2022/01/12 07:33:50;;;;;;;17.63;9.97;;;2.10;99.90;;;;;;5018143;28;20223;-79
2022/01/12 07:36:16;;;;;;;15.53;9.40;;;2.10;99.90;;;;;;5036119;28;20179;-79
2022/01/12 07:38:41;;;;;;;16.70;10.47;;;2.10;99.90;;;;;;5018528;28;20189;-79
2022/01/12 07:41:07;;;;;;;20.77;10.33;;;2.20;99.90;;;;;;5018836;28;20246;-79
2022/01/12 07:43:32;;;;;;;14.10;9.87;;;2.20;99.90;;;;;;5018659;28;20266;-79
2022/01/12 07:45:58;;;;;;;15.37;9.87;;;2.20;99.90;;;;;;5036282;28;20191;-79
2022/01/12 07:48:24;;;;;;;16.00;9.50;;;2.20;99.90;;;;;;5035916;28;20176;-79
2022/01/12 07:50:49;;;;;;;17.07;10.53;;;2.20;99.90;;;;;;5036051;28;20177;-78
2022/01/12 07:53:15;;;;;;;16.63;9.77;;;2.30;99.90;;;;;;5035542;28;20208;-79
2022/01/12 07:55:40;;;;;;;14.53;9.57;;;2.30;99.90;;;;;;5035912;28;20173;-79
2022/01/12 07:58:06;;;;;;;17.17;10.20;;;2.30;99.90;;;;;;5035649;28;20184;-79
2022/01/12 08:00:32;;;;;;;18.13;9.90;;;2.30;99.90;;;;;;5018277;28;20191;-79
2022/01/12 08:02:57;;;;;;;16.40;10.23;;;2.30;99.90;;;;;;5018004;28;20298;-79
2022/01/12 08:05:23;;;;;;;18.23;9.57;;;2.30;99.90;;;;;;5036158;28;20234;-80
2022/01/12 08:07:49;;;;;;;16.63;11.33;;;2.30;99.90;;;;;;5017325;28;20196;-79
2022/01/12 08:10:16;;;;;;;20.53;12.20;;;2.30;99.90;;;;;;5016491;28;20654;-79
2022/01/12 08:12:42;;;;;;;18.17;11.60;;;2.30;99.90;;;;;;5035882;28;20592;-79
2022/01/12 08:15:09;;;;;;;15.47;11.67;;;2.40;99.90;;;;;;5017610;28;20192;-79
2022/01/12 08:17:36;;;;;;;19.53;11.07;;;2.40;99.90;;;;;;5036077;28;20192;-79
2022/01/12 08:20:04;;;;;;;17.17;12.00;;;2.40;99.90;;;;;;5019344;28;20326;-79
2022/01/12 08:22:30;;;;;;;20.40;12.40;;;2.40;99.90;;;;;;5044783;28;20203;-79
2022/01/12 08:24:56;;;;;;;19.00;12.77;;;2.40;99.90;;;;;;5047555;28;20204;-79
2022/01/12 08:27:22;;;;;;;18.27;12.13;;;2.40;99.90;;;;;;5040473;28;20180;-79
2022/01/12 08:29:49;;;;;;;24.63;12.77;;;2.40;99.90;;;;;;5033508;28;20176;-78
2022/01/12 08:32:16;;;;;;;20.27;11.47;;;2.50;99.90;;;;;;5016608;28;20208;-79
2022/01/12 08:34:41;;;;;;;21.13;12.10;;;2.50;99.90;;;;;;5019445;28;20192;-79
2022/01/12 08:37:07;;;;;;;23.20;12.63;;;2.50;99.90;;;;;;5037159;28;20188;-79
2022/01/12 08:39:32;;;;;;;26.17;13.80;;;2.50;99.90;;;;;;5019248;28;20192;-79
2022/01/12 08:41:58;;;;;;;22.73;12.43;;;2.50;99.90;;;;;;5018858;28;20188;-79
2022/01/12 08:44:24;;;;;;;25.50;13.37;;;2.50;99.90;;;;;;5018820;28;20678;-79
2022/01/12 08:46:49;;;;;;;31.60;13.90;;;2.50;99.90;;;;;;5036680;28;20187;-78
2022/01/12 08:49:15;;;;;;;25.97;13.00;;;2.50;99.90;;;;;;5018881;28;20184;-78
2022/01/12 08:51:40;;;;;;;27.87;14.40;;;2.50;99.90;;;;;;5018951;28;20180;-78
2022/01/12 08:54:06;;;;;;;26.13;14.73;;;2.50;99.90;;;;;;5018845;28;20246;-79
2022/01/12 08:56:32;;;;;;;41.00;16.00;;;2.60;99.90;;;;;;5036391;28;20219;-78
2022/01/12 08:58:58;;;;;;;36.57;15.73;;;2.60;99.90;;;;;;5018417;28;20283;-78
2022/01/12 09:01:23;;;;;;;35.57;15.63;;;2.60;99.90;;;;;;5036389;28;20216;-78
2022/01/12 09:03:49;;;;;;;35.83;15.97;;;2.60;99.90;;;;;;5018525;28;20224;-78
2022/01/12 09:06:15;;;;;;;37.00;15.47;;;2.60;99.90;;;;;;5018464;28;20191;-78
2022/01/12 09:08:42;;;;;;;31.33;15.63;;;2.70;99.90;;;;;;5036464;28;20187;-78
2022/01/12 09:11:10;;;;;;;39.97;16.80;;;2.70;99.90;;;;;;5019258;28;20192;-79
2022/01/12 09:13:35;;;;;;;37.50;16.67;;;2.70;99.90;;;;;;5037462;28;20203;-78
2022/01/12 09:16:06;;;;;;;38.00;15.97;;;2.70;99.90;;;;;;5018701;28;20184;-79
2022/01/12 09:18:35;;;;;;;32.80;15.33;;;2.70;99.90;;;;;;5018927;28;20222;-78
2022/01/12 09:21:01;;;;;;;36.30;15.83;;;2.70;99.90;;;;;;5018625;28;20188;-79
2022/01/12 09:23:27;;;;;;;39.13;16.57;;;2.80;99.90;;;;;;5018588;28;20220;-79
2022/01/12 09:25:53;;;;;;;39.03;15.87;;;2.70;99.90;;;;;;5036494;28;20164;-78
2022/01/12 09:28:18;;;;;;;32.07;14.87;;;2.70;99.90;;;;;;5036928;28;20173;-78
2022/01/12 09:30:44;;;;;;;35.80;14.83;;;2.70;99.90;;;;;;5018873;28;20203;-79
2022/01/12 09:33:09;;;;;;;31.20;15.10;;;2.70;99.90;;;;;;5018735;28;20239;-79
2022/01/12 09:35:36;;;;;;;41.60;16.67;;;2.80;99.90;;;;;;5018487;28;20191;-78
2022/01/12 09:38:01;;;;;;;34.73;16.20;;;2.80;99.90;;;;;;5036078;28;20212;-78
2022/01/12 09:40:27;;;;;;;38.40;15.17;;;2.80;99.90;;;;;;5036275;28;20214;-78
2022/01/12 09:42:53;;;;;;;43.70;17.47;;;2.80;99.90;;;;;;5036034;28;20200;-78
2022/01/12 09:45:19;;;;;;;36.27;16.67;;;2.80;99.90;;;;;;5035494;28;20188;-78
2022/01/12 09:47:47;;;;;;;38.67;16.67;;;2.80;99.90;;;;;;5018371;28;20680;-78
2022/01/12 09:50:14;;;;;;;33.30;17.20;;;2.90;99.90;;;;;;5035702;28;20168;-78
2022/01/12 09:52:40;;;;;;;33.57;15.83;;;2.90;99.90;;;;;;5036694;28;20572;-78
2022/01/12 09:55:06;;;;;;;46.20;18.93;;;2.90;99.90;;;;;;5035903;28;20193;-78
2022/01/12 09:57:32;;;;;;;51.97;19.50;;;2.90;99.90;;;;;;5018199;28;20603;-78
2022/01/12 09:59:58;;;;;;;44.53;17.63;;;2.90;99.90;;;;;;5018104;28;20196;-78
2022/01/12 10:02:23;;;;;;;41.57;17.83;;;2.90;99.90;;;;;;5017744;28;20207;-79
2022/01/12 10:05:00;;;;;;;50.07;18.70;;;3.00;99.90;;;;;;5035855;28;20211;-78
2022/01/12 10:07:26;;;;;;;42.83;17.87;;;3.00;99.90;;;;;;5035319;28;20623;-78
2022/01/12 10:09:59;;;;;;;44.40;18.47;;;3.10;99.90;;;;;;5035708;28;20255;-78
2022/01/12 10:12:27;;;;;;;56.57;17.70;;;3.10;99.90;;;;;;5035527;28;20254;-78
2022/01/12 10:15:01;;;;;;;44.63;17.93;;;3.10;99.90;;;;;;5017515;28;20203;-78
2022/01/12 10:17:45;;;;;;;52.57;18.53;;;3.10;99.90;;;;;;5017181;28;20192;-78
2022/01/12 10:20:12;;;;;;;50.47;19.13;;;3.10;99.90;;;;;;5034574;28;20184;-78
2022/01/12 10:22:42;;;;;;;58.13;19.47;;;3.10;99.90;;;;;;5034276;28;20760;-78
2022/01/12 10:25:20;;;;;;;55.07;20.83;;;3.10;99.90;;;;;;5034881;28;20216;-78
2022/01/12 10:27:46;;;;;;;48.10;18.17;;;3.10;99.90;;;;;;5016819;28;20256;-78
2022/01/12 10:30:27;;;;;;;57.67;20.63;;;3.20;99.90;;;;;;5016804;28;20203;-78
2022/01/12 10:32:59;;;;;;;63.50;21.93;;;3.20;99.90;;;;;;5016442;28;20215;-77
2022/01/12 10:35:26;;;;;;;62.13;21.30;;;3.20;99.90;;;;;;5034122;28;20177;-78
2022/01/12 10:37:52;;;;;;;58.20;21.23;;;3.20;99.90;;;;;;5034371;28;20176;-78
2022/01/12 10:40:17;;;;;;;56.20;21.17;;;3.10;99.90;;;;;;5034465;28;20234;-78
2022/01/12 10:42:45;;;;;;;56.93;21.03;;;3.20;99.90;;;;;;5034001;28;20192;-78
2022/01/12 10:45:11;;;;;;;48.10;20.20;;;3.20;99.90;;;;;;5016297;28;20212;-78
2022/01/12 10:47:36;;;;;;;51.60;19.77;;;3.20;99.90;;;;;;5034456;28;20322;-78
2022/01/12 10:50:07;;;;;;;50.93;20.20;;;3.20;99.90;;;;;;5034101;28;20177;-78
2022/01/12 10:52:37;;;;;;;52.40;20.13;;;3.20;99.90;;;;;;5016196;28;20610;-78
2022/01/12 10:55:11;;;;;;;54.83;19.83;;;3.20;99.90;;;;;;5016666;28;20198;-78
2022/01/12 10:57:44;;;;;;;47.63;20.27;;;3.20;99.90;;;;;;5016368;28;20184;-78
2022/01/12 11:00:18;;;;;;;56.37;20.70;;;3.20;99.90;;;;;;5016675;28;20192;-78
2022/01/12 11:02:46;;;;;;;48.07;20.27;;;3.20;99.90;;;;;;5034068;28;20200;-78
2022/01/12 11:05:12;;;;;;;48.40;19.23;;;3.10;99.90;;;;;;5016152;28;20299;-78
2022/01/12 11:07:38;;;;;;;53.00;20.47;;;3.20;99.90;;;;;;5016528;28;20210;-78
2022/01/12 11:10:06;;;;;;;54.93;21.27;;;3.20;99.90;;;;;;5034196;28;20180;-78
2022/01/12 11:12:35;;;;;;;58.90;21.23;;;3.30;99.90;;;;;;5034349;28;20191;-78
2022/01/12 11:15:04;;;;;;;46.03;20.83;;;3.30;99.90;;;;;;5016553;28;20208;-78
2022/01/12 11:17:29;;;;;;;59.17;22.90;;;3.30;99.90;;;;;;5016705;28;20188;-78
2022/01/12 11:20:24;;;;;;;54.17;22.63;;;3.30;99.90;;;;;;5017810;28;20187;-78
2022/01/12 11:23:05;;;;;;;62.50;24.23;;;3.40;99.90;;;;;;5034480;28;20196;-78
2022/01/12 11:25:34;;;;;;;56.63;24.13;;;3.40;99.90;;;;;;5036101;28;20610;-79
2022/01/12 11:28:08;;;;;;;52.97;22.43;;;3.50;99.90;;;;;;5017120;28;20184;-78
2022/01/12 11:30:35;;;;;;;60.63;22.80;;;3.50;99.90;;;;;;5035015;28;20540;-79
2022/01/12 11:33:08;;;;;;;74.40;23.83;;;3.50;99.90;;;;;;5034615;28;20595;-78
2022/01/12 11:35:38;;;;;;;70.60;24.33;;;3.50;99.90;;;;;;5039697;28;20157;-78
2022/01/12 11:38:08;;;;;;;64.90;24.00;;;3.50;99.90;;;;;;5032697;28;20256;-78
2022/01/12 11:40:42;;;;;;;68.53;23.97;;;3.50;99.90;;;;;;5043310;28;20228;-79
2022/01/12 11:43:31;;;;;;;72.30;23.83;;;3.50;99.90;;;;;;5018216;28;20208;-78
2022/01/12 11:46:18;;;;;;;61.60;22.63;;;3.50;99.90;;;;;;5037163;28;20163;-80
2022/01/12 11:48:49;;;;;;;62.90;23.07;;;3.50;99.90;;;;;;5036173;28;20668;-79
2022/01/12 11:51:19;;;;;;;70.90;23.83;;;3.50;99.90;;;;;;5022935;28;20196;-79
2022/01/12 11:53:46;;;;;;;71.90;25.47;;;3.50;99.90;;;;;;5034506;28;20196;-80
2022/01/12 11:56:14;;;;;;;79.03;28.07;;;3.50;99.90;;;;;;5034960;28;20260;-79
2022/01/12 11:58:59;;;;;;;76.27;26.23;;;3.50;99.90;;;;;;5034016;28;20180;-79
2022/01/12 12:01:40;;;;;;;63.80;25.43;;;3.50;99.90;;;;;;5034257;28;20342;-79
2022/01/12 12:04:06;;;;;;;68.57;25.27;;;3.50;99.90;;;;;;5034055;28;20207;-79
2022/01/12 12:06:33;;;;;;;70.73;27.23;;;3.50;99.90;;;;;;5016363;28;20188;-80
2022/01/12 12:09:10;;;;;;;65.67;27.30;;;3.60;99.90;;;;;;5037868;28;20172;-80
2022/01/12 12:11:36;;;;;;;69.23;27.50;;;3.60;99.90;;;;;;5021768;28;20168;-80
2022/01/12 12:14:04;;;;;;;93.30;27.63;;;3.70;99.90;;;;;;5020463;28;20209;-79
2022/01/12 12:16:30;;;;;;;72.43;27.70;;;3.60;99.90;;;;;;5019583;28;20192;-79
2022/01/12 12:18:57;;;;;;;78.90;30.43;;;3.70;99.90;;;;;;5019707;28;20184;-79
2022/01/12 12:21:23;;;;;;;71.57;28.47;;;3.70;99.90;;;;;;5037779;28;20179;-79
2022/01/12 12:23:48;;;;;;;75.23;31.57;;;3.70;99.90;;;;;;5037079;28;20690;-79
2022/01/12 12:26:18;;;;;;;68.43;28.93;;;3.70;99.90;;;;;;5037762;28;20195;-79
2022/01/12 12:28:52;;;;;;;75.30;29.13;;;3.70;99.90;;;;;;5020005;28;20204;-79
2022/01/12 12:31:25;;;;;;;77.57;30.37;;;3.70;99.90;;;;;;5019283;28;20259;-79
2022/01/12 12:34:04;;;;;;;86.17;30.77;;;3.80;99.90;;;;;;5036592;28;20224;-79
2022/01/12 12:36:31;;;;;;;78.37;28.73;;;3.80;99.90;;;;;;5037583;28;20172;-79
2022/01/12 12:39:07;;;;;;;71.47;28.97;;;3.80;99.90;;;;;;5037238;28;20643;-79
2022/01/12 12:41:45;;;;;;;81.47;28.60;;;3.80;99.90;;;;;;5019091;28;20184;-79
2022/01/12 12:44:22;;;;;;;77.20;30.87;;;3.80;99.90;;;;;;5019138;28;20689;-79
2022/01/12 12:47:03;;;;;;;79.73;28.40;;;3.80;99.90;;;;;;5037414;28;20319;-79
2022/01/12 12:49:29;;;;;;;72.50;28.50;;;3.80;99.90;;;;;;5036927;28;20168;-79
2022/01/12 12:52:01;;;;;;;72.63;29.23;;;3.80;99.90;;;;;;5036397;28;20180;-79
2022/01/12 12:54:26;;;;;;;73.13;29.07;;;3.70;99.90;;;;;;5018916;28;20184;-79
2022/01/12 12:56:58;;;;;;;76.27;30.67;;;3.70;99.90;;;;;;5018907;28;20184;-79
2022/01/12 12:59:24;;;;;;;76.03;30.03;;;3.80;99.90;;;;;;5036816;28;20255;-79
2022/01/12 13:01:50;;;;;;;81.93;30.70;;;3.80;99.90;;;;;;5019065;28;20619;-79
2022/01/12 13:04:21;;;;;;;74.57;30.87;;;3.80;99.90;;;;;;5019050;28;20218;-79
2022/01/12 13:06:47;;;;;;;71.50;29.93;;;3.80;99.90;;;;;;5036395;28;20180;-79
2022/01/12 13:09:13;;;;;;;70.87;29.17;;;3.90;99.90;;;;;;5037004;28;20200;-80
2022/01/12 13:11:44;;;;;;;86.07;31.40;;;3.90;99.90;;;;;;5019111;28;20180;-79
2022/01/12 13:14:12;;;;;;;90.20;32.23;;;3.80;99.90;;;;;;5036945;28;20204;-79
2022/01/12 13:16:53;;;;;;;84.37;31.13;;;3.90;99.90;;;;;;5018834;28;20306;-79
2022/01/12 13:22:36;;;;;;;92.63;35.60;;;3.90;99.90;;;;;;5036608;28;20208;-79
2022/01/12 13:25:07;;;;;;;89.40;35.57;;;3.90;99.90;;;;;;5035649;28;20662;-79
2022/01/12 13:27:34;;;;;;;94.63;35.70;;;3.90;99.90;;;;;;5036704;28;20168;-79
2022/01/12 13:30:00;;;;;;;81.63;34.37;;;3.90;99.90;;;;;;5018692;28;20535;-79
2022/01/12 13:32:25;;;;;;;80.57;33.30;;;4.00;99.90;;;;;;5035863;28;20211;-80
2022/01/12 13:35:03;;;;;;;86.77;35.40;;;4.00;99.90;;;;;;5018170;28;20227;-79
2022/01/12 13:37:31;;;;;;;87.57;33.30;;;4.00;99.90;;;;;;5036403;28;20180;-79
2022/01/12 13:40:07;;;;;;;98.80;33.47;;;4.00;99.90;;;;;;5037496;28;20172;-79
2022/01/12 13:42:49;;;;;;;87.30;34.77;;;4.00;99.90;;;;;;5038141;28;20199;-79
2022/01/12 13:45:17;;;;;;;100.87;33.97;;;3.90;99.90;;;;;;5052360;28;20176;-79
2022/01/12 13:47:49;;;;;;;82.63;32.63;;;3.90;99.90;;;;;;5041287;28;20157;-79
2022/01/12 13:50:15;;;;;;;96.10;35.80;;;4.00;99.90;;;;;;5041176;28;20203;-79
2022/01/12 13:52:51;;;;;;;100.40;36.83;;;4.00;99.90;;;;;;5057700;28;20218;-79
2022/01/12 13:55:17;;;;;;;95.40;34.97;;;4.10;99.90;;;;;;5058018;28;20168;-79
2022/01/12 13:57:43;;;;;;;103.37;36.57;;;4.00;99.90;;;;;;5057794;28;20187;-80
2022/01/12 14:00:19;;;;;;;98.07;37.37;;;4.00;99.90;;;;;;5041290;28;20223;-79
2022/01/12 14:02:45;;;;;;;104.77;39.27;;;4.00;99.90;;;;;;5036278;28;20227;-79
2022/01/12 14:05:17;;;;;;;96.43;36.10;;;4.00;99.90;;;;;;5039920;28;20258;-79
2022/01/12 14:07:58;;;;;;;98.23;37.13;;;4.00;99.90;;;;;;5039964;28;20267;-80
2022/01/12 14:10:24;;;;;;;99.13;36.97;;;4.00;99.90;;;;;;5021362;28;20196;-80